createdAt,value
2022-09-28T00:02:10.248Z,80.65
2022-09-28T00:04:36.616Z,80.56
2022-09-28T00:07:03.028Z,80.36
2022-09-28T00:09:29.384Z,80.46
2022-09-28T00:11:55.731Z,80.37
2022-09-28T00:14:22.114Z,80.56
2022-09-28T00:16:48.472Z,80.94
2022-09-28T00:19:15.286Z,80.75
2022-09-28T00:21:42.596Z,80.44
2022-09-28T00:24:13.003Z,80.69
2022-09-28T00:26:46.240Z,80.60
2022-09-28T00:29:24.951Z,80.05
2022-09-28T00:31:53.174Z,79.58
2022-09-28T00:34:19.781Z,79.84
2022-09-28T00:36:46.972Z,78.95
2022-09-28T00:39:15.327Z,79.73
2022-09-28T00:41:42.409Z,79.90
2022-09-28T00:44:24.110Z,77.48
2022-09-28T00:46:58.159Z,77.99
2022-09-28T00:49:38.311Z,78.73
2022-09-28T00:52:08.149Z,78.12
2022-09-28T00:54:36.082Z,78.35
2022-09-28T00:57:03.870Z,79.07
2022-09-28T00:59:32.437Z,79.22
2022-09-28T01:01:58.892Z,79.17
2022-09-28T01:04:29.286Z,79.01
2022-09-28T01:06:57.641Z,78.74
2022-09-28T01:09:27.015Z,78.77
2022-09-28T01:11:53.380Z,79.57
2022-09-28T01:14:19.878Z,79.34
2022-09-28T01:16:49.510Z,79.18
2022-09-28T01:19:46.030Z,78.81
2022-09-28T01:22:36.178Z,79.17
2022-09-28T01:25:27.498Z,78.94
2022-09-28T01:28:05.959Z,78.75
2022-09-28T01:30:42.419Z,78.99
2022-09-28T01:33:13.586Z,78.40
2022-09-28T01:39:23.916Z,79.59
2022-09-28T01:41:52.232Z,79.11
2022-09-28T01:44:21.042Z,79.21
2022-09-28T01:46:49.703Z,79.68
2022-09-28T01:49:29.295Z,79.96
2022-09-28T01:52:05.059Z,79.21
2022-09-28T01:54:43.784Z,79.64
2022-09-28T01:57:24.513Z,79.76
2022-09-28T02:00:05.644Z,78.85
2022-09-28T02:02:39.689Z,79.35
2022-09-28T02:05:15.411Z,78.04
2022-09-28T02:07:51.957Z,78.83
2022-09-28T02:10:28.118Z,79.07
2022-09-28T02:13:02.915Z,79.21
2022-09-28T02:15:39.412Z,79.35
2022-09-28T02:18:06.087Z,79.33
2022-09-28T02:20:35.551Z,79.20
2022-09-28T02:23:04.078Z,79.30
2022-09-28T02:25:40.423Z,79.61
2022-09-28T02:28:12.958Z,79.64
2022-09-28T02:30:41.371Z,79.58
2022-09-28T02:33:31.818Z,79.96
2022-09-28T02:36:01.617Z,80.31
2022-09-28T02:38:27.916Z,80.45
2022-09-28T02:41:09.901Z,80.93
2022-09-28T02:43:50.223Z,81.18
2022-09-28T02:46:29.717Z,80.13
2022-09-28T02:49:22.420Z,80.89
2022-09-28T02:52:05.184Z,81.80
2022-09-28T02:54:37.169Z,81.79
2022-09-28T02:57:11.065Z,82.15
2022-09-28T02:59:46.544Z,82.56
2022-09-28T03:02:12.902Z,83.01
2022-09-28T03:04:50.304Z,83.24
2022-09-28T03:07:48.199Z,83.25
2022-09-28T03:10:48.871Z,83.56
2022-09-28T03:13:16.712Z,83.66
2022-09-28T03:15:47.782Z,83.88
2022-09-28T03:18:15.469Z,83.26
2022-09-28T03:20:41.758Z,83.57
2022-09-28T03:23:25.045Z,84.47
2022-09-28T03:25:52.199Z,85.01
2022-09-28T03:28:18.852Z,84.61
2022-09-28T03:30:45.172Z,84.62
2022-09-28T03:33:11.816Z,84.75
2022-09-28T03:35:38.174Z,84.45
2022-09-28T03:38:04.466Z,84.06
2022-09-28T03:40:31.064Z,84.49
2022-09-28T03:42:57.476Z,84.52
2022-09-28T03:45:23.746Z,84.68
2022-09-28T03:47:50.036Z,84.46
2022-09-28T03:50:16.487Z,84.62
2022-09-28T03:52:42.773Z,84.97
2022-09-28T03:55:09.279Z,85.19
2022-09-28T03:57:35.657Z,85.27
2022-09-28T04:00:03.187Z,84.81
2022-09-28T04:02:29.554Z,83.60
2022-09-28T04:04:55.937Z,84.64
2022-09-28T04:07:22.803Z,84.62
2022-09-28T04:09:49.505Z,84.80
2022-09-28T04:12:15.796Z,84.77
2022-09-28T04:14:42.147Z,84.68
2022-09-28T04:17:08.591Z,85.39
2022-09-28T04:19:34.887Z,85.12
2022-09-28T04:22:01.910Z,85.71
2022-09-28T04:24:28.194Z,85.42
2022-09-28T04:26:54.478Z,84.30
2022-09-28T04:29:21.065Z,83.97
2022-09-28T04:31:54.415Z,84.59
2022-09-28T04:34:22.668Z,84.74
2022-09-28T04:36:49.545Z,84.91
2022-09-28T04:39:17.965Z,85.09
2022-09-28T04:41:44.315Z,85.53
2022-09-28T04:44:10.919Z,85.11
2022-09-28T04:46:37.224Z,85.33
2022-09-28T04:49:03.642Z,84.66
2022-09-28T04:51:33.249Z,84.13
2022-09-28T04:53:59.540Z,84.17
2022-09-28T04:56:25.899Z,84.04
2022-09-28T04:58:52.940Z,82.39
2022-09-28T05:01:20.157Z,83.16
2022-09-28T05:03:46.482Z,83.52
2022-09-28T05:06:15.050Z,83.42
2022-09-28T05:08:42.809Z,83.45
2022-09-28T05:11:11.734Z,83.39
2022-09-28T05:13:43.899Z,84.07
2022-09-28T05:16:11.485Z,84.33
2022-09-28T05:18:37.888Z,84.45
2022-09-28T05:21:09.552Z,84.77
2022-09-28T05:23:36.040Z,84.92
2022-09-28T05:26:02.543Z,84.02
2022-09-28T05:28:30.927Z,84.10
2022-09-28T05:31:04.869Z,84.66
2022-09-28T05:33:32.609Z,83.40
2022-09-28T05:36:01.555Z,82.59
2022-09-28T05:38:30.187Z,82.58
2022-09-28T05:40:56.938Z,82.85
2022-09-28T05:43:23.401Z,83.15
2022-09-28T05:45:55.100Z,82.04
2022-09-28T05:48:22.803Z,82.19
2022-09-28T05:50:52.584Z,82.85
2022-09-28T05:53:19.327Z,83.81
2022-09-28T05:55:45.828Z,84.30
2022-09-28T05:58:12.192Z,84.60
2022-09-28T06:00:38.830Z,84.81
2022-09-28T06:03:09.174Z,84.35
2022-09-28T06:05:36.507Z,84.47
2022-09-28T06:08:03.805Z,82.85
2022-09-28T06:10:30.446Z,83.12
2022-09-28T06:12:57.751Z,83.87
2022-09-28T06:15:26.879Z,84.24
2022-09-28T06:18:00.792Z,84.02
2022-09-28T06:20:29.391Z,83.85
2022-09-28T06:22:57.134Z,84.52
2022-09-28T06:25:24.618Z,85.51
2022-09-28T06:28:06.499Z,84.89
2022-09-28T06:30:34.811Z,85.26
2022-09-28T06:33:02.034Z,84.83
2022-09-28T06:35:30.593Z,85.33
2022-09-28T06:37:58.447Z,85.97
2022-09-28T06:40:24.802Z,86.05
2022-09-28T06:43:10.051Z,86.22
2022-09-28T06:45:37.916Z,86.39
2022-09-28T06:48:05.091Z,85.54
2022-09-28T06:50:34.494Z,85.57
2022-09-28T06:53:01.750Z,86.07
2022-09-28T06:55:28.743Z,86.28
2022-09-28T06:58:05.649Z,86.50
2022-09-28T07:00:34.671Z,86.37
2022-09-28T07:03:11.610Z,86.04
2022-09-28T07:05:41.845Z,86.26
2022-09-28T07:08:08.203Z,83.63
2022-09-28T07:10:34.911Z,83.69
2022-09-28T07:13:04.031Z,83.79
2022-09-28T07:15:31.422Z,80.61
2022-09-28T07:18:02.693Z,81.50
2022-09-28T07:20:30.169Z,81.63
2022-09-28T07:23:09.856Z,82.08
2022-09-28T07:25:36.993Z,82.96
2022-09-28T07:28:04.796Z,82.82
2022-09-28T07:30:33.911Z,82.00
2022-09-28T07:33:00.983Z,83.16
2022-09-28T07:35:27.290Z,83.80
2022-09-28T07:37:58.920Z,84.28
2022-09-28T07:40:25.450Z,84.12
2022-09-28T07:42:51.893Z,84.66
2022-09-28T07:45:19.961Z,85.48
2022-09-28T07:47:46.796Z,84.19
2022-09-28T07:50:13.524Z,84.39
2022-09-28T07:52:39.817Z,85.49
2022-09-28T07:55:07.445Z,85.71
2022-09-28T07:57:33.940Z,85.30
2022-09-28T08:00:00.430Z,82.66
2022-09-28T08:02:26.971Z,81.76
2022-09-28T08:04:53.539Z,80.04
2022-09-28T08:07:23.716Z,81.25
2022-09-28T08:09:50.461Z,81.76
2022-09-28T08:12:17.257Z,83.00
2022-09-28T08:14:43.721Z,81.82
2022-09-28T08:17:10.005Z,80.78
2022-09-28T08:19:36.335Z,81.43
2022-09-28T08:22:02.703Z,81.09
2022-09-28T08:24:29.000Z,82.24
2022-09-28T08:26:55.649Z,83.03
2022-09-28T08:29:22.046Z,83.98
2022-09-28T08:31:48.445Z,80.49
2022-09-28T08:34:14.869Z,79.36
2022-09-28T08:36:41.477Z,78.83
2022-09-28T08:39:07.853Z,80.24
2022-09-28T08:41:48.725Z,79.16
2022-09-28T08:44:20.948Z,78.64
2022-09-28T08:46:55.495Z,79.69
2022-09-28T08:49:43.190Z,76.59
2022-09-28T08:52:19.661Z,77.75
2022-09-28T08:54:55.943Z,73.93
2022-09-28T08:57:33.613Z,75.76
2022-09-28T09:00:03.235Z,74.01
2022-09-28T09:02:36.408Z,77.23
2022-09-28T09:05:05.066Z,76.66
2022-09-28T09:07:47.587Z,76.88
2022-09-28T09:10:37.479Z,77.21
2022-09-28T09:13:21.517Z,76.50
2022-09-28T09:16:03.396Z,77.62
2022-09-28T09:18:41.743Z,73.98
2022-09-28T09:21:15.161Z,74.03
2022-09-28T09:24:02.472Z,73.21
2022-09-28T09:26:39.067Z,71.59
2022-09-28T09:29:34.104Z,74.67
2022-09-28T09:32:26.699Z,75.54
2022-09-28T09:35:03.724Z,76.32
2022-09-28T09:37:58.599Z,76.73
2022-09-28T09:40:50.153Z,77.77
2022-09-28T09:43:57.691Z,75.40
2022-09-28T09:46:35.611Z,76.82
2022-09-28T09:49:14.011Z,74.78
2022-09-28T09:52:06.335Z,71.12
2022-09-28T09:54:39.282Z,74.73
2022-09-28T09:57:15.377Z,74.43
2022-09-28T09:59:44.331Z,76.30
2022-09-28T10:02:19.711Z,73.89
2022-09-28T10:04:46.979Z,76.78
2022-09-28T10:07:22.104Z,75.10
2022-09-28T10:09:50.097Z,73.26
2022-09-28T10:12:21.113Z,74.84
2022-09-28T10:14:47.506Z,76.68
2022-09-28T10:17:17.477Z,78.08
2022-09-28T10:19:44.276Z,76.25
2022-09-28T10:22:16.501Z,75.63
2022-09-28T10:24:46.274Z,75.57
2022-09-28T10:27:18.814Z,75.72
2022-09-28T10:30:11.616Z,74.13
2022-09-28T10:32:43.386Z,72.80
2022-09-28T10:35:18.504Z,71.29
2022-09-28T10:37:53.985Z,69.47
2022-09-28T10:40:26.664Z,69.85
2022-09-28T10:43:00.551Z,70.01
2022-09-28T10:45:28.414Z,72.44
2022-09-28T10:47:54.769Z,73.32
2022-09-28T10:50:25.326Z,76.80
2022-09-28T10:52:51.862Z,73.83
2022-09-28T10:55:21.878Z,75.34
2022-09-28T10:57:48.325Z,74.62
2022-09-28T11:00:34.748Z,77.00
2022-09-28T11:03:02.280Z,77.50
2022-09-28T11:05:29.360Z,78.14
2022-09-28T11:07:58.313Z,78.49
2022-09-28T11:10:28.007Z,77.83
2022-09-28T11:12:55.570Z,77.64
2022-09-28T11:15:33.584Z,77.95
2022-09-28T11:18:38.769Z,76.71
2022-09-28T11:21:12.744Z,76.76
2022-09-28T11:23:40.003Z,77.78
2022-09-28T11:26:07.876Z,76.90
2022-09-28T11:28:37.529Z,73.72
2022-09-28T11:31:06.326Z,73.19
2022-09-28T11:33:40.732Z,73.18
2022-09-28T11:36:13.240Z,74.91
2022-09-28T11:38:40.514Z,72.63
2022-09-28T11:41:16.504Z,73.81
2022-09-28T11:44:08.147Z,76.67
2022-09-28T11:47:02.316Z,76.49
2022-09-28T11:50:12.491Z,77.80
2022-09-28T11:52:48.534Z,77.47
2022-09-28T11:55:26.673Z,77.75
2022-09-28T11:58:20.728Z,77.05
2022-09-28T12:00:54.008Z,77.14
2022-09-28T12:03:43.742Z,77.16
2022-09-28T12:06:16.243Z,75.52
2022-09-28T12:08:49.816Z,75.84
2022-09-28T12:11:30.516Z,77.09
2022-09-28T12:14:00.495Z,77.49
2022-09-28T12:19:36.013Z,72.71
2022-09-28T12:22:17.192Z,70.83
2022-09-28T12:24:50.782Z,72.25
2022-09-28T12:27:31.360Z,73.01
2022-09-28T12:30:16.374Z,73.22
2022-09-28T12:33:04.296Z,73.40
2022-09-28T12:35:40.619Z,72.50
2022-09-28T12:38:29.035Z,73.53
2022-09-28T12:41:14.966Z,75.86
2022-09-28T12:43:53.629Z,73.87
2022-09-28T12:46:35.711Z,75.89
2022-09-28T12:50:13.757Z,77.19
2022-09-28T12:52:35.883Z,77.15
2022-09-28T12:55:15.117Z,76.73
2022-09-28T12:58:00.927Z,76.36
2022-09-28T13:01:10.494Z,75.30
2022-09-28T13:03:57.595Z,76.29
2022-09-28T13:06:34.366Z,75.63
2022-09-28T13:09:21.382Z,76.16
2022-09-28T13:12:04.081Z,76.12
2022-09-28T13:15:05.790Z,76.51
2022-09-28T13:17:50.305Z,76.61
2022-09-28T13:20:39.743Z,75.61
2022-09-28T13:23:23.034Z,74.74
2022-09-28T13:26:01.373Z,74.84
2022-09-28T13:28:29.403Z,76.17
2022-09-28T13:33:38.392Z,80.09
2022-09-28T13:36:27.807Z,79.53
2022-09-28T13:38:56.123Z,78.58
2022-09-28T13:41:35.535Z,76.27
2022-09-28T13:44:13.006Z,76.59
2022-09-28T13:46:51.226Z,77.64
2022-09-28T13:49:45.028Z,79.24
2022-09-28T13:52:39.364Z,79.97
2022-09-28T13:55:20.526Z,80.48
2022-09-28T13:58:01.305Z,80.41
2022-09-28T14:00:42.886Z,81.52
2022-09-28T14:03:28.360Z,81.51
2022-09-28T14:06:00.459Z,81.36
2022-09-28T14:08:37.867Z,81.59
2022-09-28T14:11:32.121Z,81.86
2022-09-28T14:14:25.364Z,81.23
2022-09-28T14:17:19.970Z,81.47
2022-09-28T14:20:14.837Z,81.73
2022-09-28T14:23:03.127Z,81.24
2022-09-28T14:25:36.148Z,80.25
2022-09-28T14:28:21.613Z,80.46
2022-09-28T14:30:52.336Z,80.56
2022-09-28T14:33:18.694Z,80.95
2022-09-28T14:35:50.509Z,81.23
2022-09-28T14:38:20.497Z,81.58
2022-09-28T14:41:12.498Z,81.38
2022-09-28T14:43:44.995Z,81.61
2022-09-28T14:46:11.587Z,82.31
2022-09-28T14:48:46.833Z,82.14
2022-09-28T14:51:25.312Z,81.59
2022-09-28T14:54:04.238Z,81.97
2022-09-28T14:56:53.614Z,82.53
2022-09-28T14:59:21.490Z,82.92
2022-09-28T15:01:59.715Z,83.25
2022-09-28T15:04:28.865Z,83.34
2022-09-28T15:06:55.590Z,83.13
2022-09-28T15:09:35.236Z,84.03
2022-09-28T15:12:10.844Z,83.31
2022-09-28T15:14:45.638Z,83.12
2022-09-28T15:17:13.433Z,82.41
2022-09-28T15:20:26.134Z,82.58
2022-09-28T15:22:57.249Z,81.68
2022-09-28T15:25:26.162Z,82.02
2022-09-28T15:27:58.534Z,82.90
2022-09-28T15:30:33.416Z,82.80
2022-09-28T15:33:01.992Z,82.26
2022-09-28T15:35:28.375Z,82.47
2022-09-28T15:37:55.443Z,83.07
2022-09-28T15:40:33.218Z,83.40
2022-09-28T15:42:59.977Z,83.34
2022-09-28T15:45:32.044Z,83.47
2022-09-28T15:48:34.048Z,82.65
2022-09-28T15:51:10.984Z,82.23
2022-09-28T15:53:57.280Z,82.49
2022-09-28T15:56:25.312Z,82.40
2022-09-28T15:59:11.283Z,82.64
2022-09-28T16:01:38.580Z,82.82
2022-09-28T16:04:35.049Z,82.81
2022-09-28T16:07:10.475Z,82.93
2022-09-28T16:09:54.954Z,81.79
2022-09-28T16:12:22.036Z,82.28
2022-09-28T16:14:53.226Z,83.29
2022-09-28T16:17:30.878Z,83.82
2022-09-28T16:19:57.247Z,84.07
2022-09-28T16:22:28.613Z,84.33
2022-09-28T16:24:57.418Z,84.75
2022-09-28T16:27:39.175Z,84.78
2022-09-28T16:30:30.725Z,85.30
2022-09-28T16:33:04.140Z,85.27
2022-09-28T16:35:42.426Z,85.03
2022-09-28T16:38:13.579Z,84.86
2022-09-28T16:40:42.314Z,84.83
2022-09-28T16:43:19.527Z,84.68
2022-09-28T16:45:46.640Z,84.82
2022-09-28T16:48:14.994Z,85.11
2022-09-28T16:50:41.278Z,85.02
2022-09-28T16:53:17.505Z,84.90
2022-09-28T16:55:45.058Z,84.36
2022-09-28T16:58:11.357Z,84.26
2022-09-28T17:00:38.128Z,84.71
2022-09-28T17:03:13.817Z,84.84
2022-09-28T17:05:40.264Z,84.92
2022-09-28T17:08:06.707Z,85.01
2022-09-28T17:11:02.448Z,84.54
2022-09-28T17:13:32.908Z,84.43
2022-09-28T17:16:00.505Z,84.75
2022-09-28T17:18:27.268Z,84.78
2022-09-28T17:20:56.420Z,84.86
2022-09-28T17:23:22.861Z,85.12
2022-09-28T17:25:49.328Z,85.26
2022-09-28T17:28:51.260Z,85.44
2022-09-28T17:31:17.774Z,85.23
2022-09-28T17:33:44.372Z,85.17
2022-09-28T17:36:15.834Z,85.16
2022-09-28T17:38:43.031Z,85.27
2022-09-28T17:41:19.421Z,85.25
2022-09-28T17:43:46.737Z,85.25
2022-09-28T17:46:33.046Z,85.65
2022-09-28T17:49:01.613Z,85.68
2022-09-28T17:51:30.072Z,85.74
2022-09-28T17:53:57.532Z,86.11
2022-09-28T17:56:27.570Z,85.87
2022-09-28T17:58:59.813Z,85.69
2022-09-28T18:01:26.151Z,85.87
2022-09-28T18:03:52.462Z,86.18
2022-09-28T18:06:18.957Z,86.11
2022-09-28T18:08:45.867Z,86.30
2022-09-28T18:11:12.441Z,86.12
2022-09-28T18:13:38.957Z,86.07
2022-09-28T18:16:06.260Z,86.13
2022-09-28T18:18:33.083Z,86.07
2022-09-28T18:21:02.560Z,85.59
2022-09-28T18:23:28.881Z,85.63
2022-09-28T18:25:55.797Z,85.74
2022-09-28T18:28:22.216Z,86.04
2022-09-28T18:30:48.710Z,86.45
2022-09-28T18:33:15.138Z,86.97
2022-09-28T18:35:41.731Z,86.69
2022-09-28T18:38:08.113Z,86.69
2022-09-28T18:40:35.490Z,87.14
2022-09-28T18:43:02.908Z,86.82
2022-09-28T18:45:29.349Z,86.71
2022-09-28T18:47:55.681Z,85.86
2022-09-28T18:50:22.007Z,86.20
2022-09-28T18:52:48.413Z,86.62
2022-09-28T18:55:14.725Z,87.22
2022-09-28T18:57:41.070Z,87.39
2022-09-28T19:00:10.638Z,87.47
2022-09-28T19:02:37.770Z,87.65
2022-09-28T19:05:05.060Z,87.63
2022-09-28T19:07:32.268Z,86.96
2022-09-28T19:09:58.667Z,87.28
2022-09-28T19:12:25.203Z,87.19
2022-09-28T19:14:51.698Z,87.47
2022-09-28T19:17:18.108Z,87.29
2022-09-28T19:19:44.416Z,87.09
2022-09-28T19:22:12.556Z,87.17
2022-09-28T19:24:39.115Z,87.41
2022-09-28T19:27:05.573Z,87.29
2022-09-28T19:29:31.866Z,87.23
2022-09-28T19:31:58.492Z,87.13
2022-09-28T19:34:24.803Z,87.55
2022-09-28T19:36:51.347Z,87.65
2022-09-28T19:39:17.826Z,87.69
2022-09-28T19:41:45.018Z,87.89
2022-09-28T19:44:11.357Z,87.79
2022-09-28T19:46:39.479Z,87.58
2022-09-28T19:49:09.134Z,87.39
2022-09-28T19:51:35.455Z,87.16
2022-09-28T19:54:03.245Z,87.08
2022-09-28T19:56:29.746Z,87.43
2022-09-28T19:58:57.062Z,87.19
2022-09-28T20:01:23.454Z,87.17
2022-09-28T20:03:49.873Z,87.41
2022-09-28T20:06:17.489Z,87.58
2022-09-28T20:08:51.451Z,87.75
2022-09-28T20:11:18.697Z,87.76
2022-09-28T20:13:45.583Z,87.67
2022-09-28T20:16:18.263Z,87.61
2022-09-28T20:18:45.813Z,87.48
2022-09-28T20:21:14.983Z,87.46
2022-09-28T20:23:45.178Z,87.24
2022-09-28T20:26:12.158Z,87.35
2022-09-28T20:28:39.095Z,87.75
2022-09-28T20:31:07.622Z,87.59
2022-09-28T20:33:35.493Z,87.59
2022-09-28T20:36:31.525Z,87.41
2022-09-28T20:38:59.869Z,87.24
2022-09-28T20:41:26.586Z,86.92
2022-09-28T20:43:55.971Z,87.00
2022-09-28T20:46:23.168Z,86.94
2022-09-28T20:48:53.761Z,86.51
2022-09-28T20:51:21.572Z,86.86
2022-09-28T20:53:55.427Z,87.36
2022-09-28T20:56:28.930Z,87.39
2022-09-28T20:58:57.883Z,87.01
2022-09-28T21:01:28.857Z,86.78
2022-09-28T21:03:58.094Z,86.92
2022-09-28T21:06:27.589Z,86.73
2022-09-28T21:08:54.678Z,86.91
2022-09-28T21:11:23.371Z,86.86
2022-09-28T21:14:01.718Z,86.81
2022-09-28T21:16:30.992Z,86.77
2022-09-28T21:18:58.023Z,86.81
2022-09-28T21:21:25.639Z,86.98
2022-09-28T21:23:56.560Z,86.73
2022-09-28T21:26:28.207Z,87.11
2022-09-28T21:29:00.712Z,86.61
2022-09-28T21:31:30.571Z,86.42
2022-09-28T21:39:32.647Z,86.23
2022-09-28T21:41:58.986Z,86.44
2022-09-28T21:44:25.344Z,86.24
2022-09-28T21:46:51.694Z,86.15
2022-09-28T21:49:18.025Z,86.31
2022-09-28T21:51:44.361Z,86.12
2022-09-28T21:54:10.735Z,85.93
2022-09-28T21:56:37.078Z,86.12
2022-09-28T21:59:03.454Z,86.51
2022-09-28T22:01:29.896Z,86.33
2022-09-28T22:03:56.911Z,86.18
2022-09-28T22:06:25.917Z,86.08
2022-09-28T22:08:52.247Z,86.09
2022-09-28T22:11:21.176Z,86.31
2022-09-28T22:13:52.207Z,86.08
2022-09-28T22:16:22.642Z,85.74
2022-09-28T22:18:49.490Z,85.63
2022-09-28T22:21:17.885Z,85.68
2022-09-28T22:23:44.899Z,86.44
2022-09-28T22:26:20.518Z,86.19
2022-09-28T22:28:58.790Z,86.27
2022-09-28T22:31:31.785Z,86.30
2022-09-28T22:33:58.934Z,86.50
2022-09-28T22:36:26.387Z,86.39
2022-09-28T22:38:54.782Z,86.07
2022-09-28T22:41:22.021Z,85.94
2022-09-28T22:43:50.077Z,85.70
2022-09-28T22:46:20.053Z,85.41
2022-09-28T22:48:51.547Z,85.90
2022-09-28T22:51:18.952Z,86.26
2022-09-28T22:53:45.394Z,85.93
2022-09-28T22:56:17.488Z,85.72
2022-09-28T22:58:44.991Z,86.11
2022-09-28T23:01:15.068Z,86.25
2022-09-28T23:03:41.502Z,86.39
2022-09-28T23:06:08.886Z,86.01
2022-09-28T23:08:36.154Z,85.86
2022-09-28T23:11:03.081Z,86.07
2022-09-28T23:13:29.435Z,86.54
2022-09-28T23:16:05.246Z,86.30
2022-09-28T23:18:34.746Z,85.60
2022-09-28T23:21:03.979Z,85.97
2022-09-28T23:23:31.220Z,86.24
2022-09-28T23:25:57.900Z,86.09
2022-09-28T23:28:25.760Z,86.40
2022-09-28T23:30:52.433Z,86.21
2022-09-28T23:33:20.945Z,86.70
2022-09-28T23:35:47.477Z,86.37
2022-09-28T23:38:15.420Z,86.16
2022-09-28T23:40:41.891Z,86.15
2022-09-28T23:43:09.021Z,86.00
2022-09-28T23:45:35.408Z,86.34
2022-09-28T23:48:02.205Z,86.02
2022-09-28T23:50:28.950Z,86.22
2022-09-28T23:52:55.476Z,86.49
2022-09-28T23:55:21.782Z,86.13
2022-09-28T23:57:48.097Z,86.28
